sensor_id;sensor_type;location;lat;lon;timestamp;temperature;humidity
11824;DHT22;5969;50.780;7.726;2023-07-28T00:02:06;15.80;99.90
11824;DHT22;5969;50.780;7.726;2023-07-28T00:04:34;15.70;99.90
11824;DHT22;5969;50.780;7.726;2023-07-28T00:07:01;15.80;99.90
11824;DHT22;5969;50.780;7.726;2023-07-28T00:09:28;15.80;99.90
11824;DHT22;5969;50.780;7.726;2023-07-28T00:11:55;15.80;99.90
11824;DHT22;5969;50.780;7.726;2023-07-28T00:14:24;15.80;99.90
11824;DHT22;5969;50.780;7.726;2023-07-28T00:16:51;15.80;99.90
11824;DHT22;5969;50.780;7.726;2023-07-28T00:19:18;15.90;99.90
11824;DHT22;5969;50.780;7.726;2023-07-28T00:21:46;15.80;99.90
11824;DHT22;5969;50.780;7.726;2023-07-28T00:24:13;15.80;99.90
11824;DHT22;5969;50.780;7.726;2023-07-28T00:26:40;15.80;99.90
11824;DHT22;5969;50.780;7.726;2023-07-28T00:29:07;15.70;99.90
11824;DHT22;5969;50.780;7.726;2023-07-28T00:31:36;15.80;99.90
11824;DHT22;5969;50.780;7.726;2023-07-28T00:34:04;15.80;99.90
11824;DHT22;5969;50.780;7.726;2023-07-28T00:36:31;15.70;99.90
11824;DHT22;5969;50.780;7.726;2023-07-28T00:38:58;15.80;99.90
11824;DHT22;5969;50.780;7.726;2023-07-28T00:41:24;15.80;99.90
11824;DHT22;5969;50.780;7.726;2023-07-28T00:43:51;15.80;99.90
11824;DHT22;5969;50.780;7.726;2023-07-28T00:46:18;15.80;99.90
11824;DHT22;5969;50.780;7.726;2023-07-28T00:48:46;15.80;99.90
11824;DHT22;5969;50.780;7.726;2023-07-28T00:51:13;15.80;99.90
11824;DHT22;5969;50.780;7.726;2023-07-28T00:53:40;15.80;99.90
11824;DHT22;5969;50.780;7.726;2023-07-28T00:56:07;15.70;99.90
11824;DHT22;5969;50.780;7.726;2023-07-28T00:58:34;15.80;99.90
11824;DHT22;5969;50.780;7.726;2023-07-28T01:01:01;15.80;99.90
11824;DHT22;5969;50.780;7.726;2023-07-28T01:03:29;15.90;99.90
11824;DHT22;5969;50.780;7.726;2023-07-28T01:06:07;15.90;99.90
11824;DHT22;5969;50.780;7.726;2023-07-28T01:08:38;15.90;99.90
11824;DHT22;5969;50.780;7.726;2023-07-28T01:11:08;15.90;99.90
11824;DHT22;5969;50.780;7.726;2023-07-28T01:13:36;16.00;99.90
11824;DHT22;5969;50.780;7.726;2023-07-28T01:16:03;16.10;99.90
11824;DHT22;5969;50.780;7.726;2023-07-28T01:18:30;16.00;99.90
11824;DHT22;5969;50.780;7.726;2023-07-28T01:21:01;16.00;99.90
11824;DHT22;5969;50.780;7.726;2023-07-28T01:23:37;16.00;99.90
11824;DHT22;5969;50.780;7.726;2023-07-28T01:26:09;16.00;99.90
11824;DHT22;5969;50.780;7.726;2023-07-28T01:28:39;16.00;99.90
11824;DHT22;5969;50.780;7.726;2023-07-28T01:31:08;16.00;99.90
11824;DHT22;5969;50.780;7.726;2023-07-28T01:33:35;16.00;99.90
11824;DHT22;5969;50.780;7.726;2023-07-28T01:36:02;15.90;99.90
11824;DHT22;5969;50.780;7.726;2023-07-28T01:38:29;15.90;99.90
11824;DHT22;5969;50.780;7.726;2023-07-28T01:40:56;15.90;99.90
11824;DHT22;5969;50.780;7.726;2023-07-28T01:43:23;15.90;99.90
11824;DHT22;5969;50.780;7.726;2023-07-28T01:45:51;15.80;99.90
11824;DHT22;5969;50.780;7.726;2023-07-28T01:48:18;15.80;99.90
11824;DHT22;5969;50.780;7.726;2023-07-28T01:50:45;15.80;99.90
11824;DHT22;5969;50.780;7.726;2023-07-28T01:53:14;15.80;99.90
11824;DHT22;5969;50.780;7.726;2023-07-28T01:55:40;15.80;99.90
11824;DHT22;5969;50.780;7.726;2023-07-28T01:58:07;15.80;99.90
11824;DHT22;5969;50.780;7.726;2023-07-28T02:00:35;15.90;99.90
11824;DHT22;5969;50.780;7.726;2023-07-28T02:03:03;15.90;99.90
11824;DHT22;5969;50.780;7.726;2023-07-28T02:05:30;15.90;99.90
11824;DHT22;5969;50.780;7.726;2023-07-28T02:07:58;15.90;99.90
11824;DHT22;5969;50.780;7.726;2023-07-28T02:10:26;15.90;99.90
11824;DHT22;5969;50.780;7.726;2023-07-28T02:12:53;15.90;99.90
11824;DHT22;5969;50.780;7.726;2023-07-28T02:15:25;15.90;99.90
11824;DHT22;5969;50.780;7.726;2023-07-28T02:17:52;16.00;99.90
11824;DHT22;5969;50.780;7.726;2023-07-28T02:23:39;16.00;99.90
11824;DHT22;5969;50.780;7.726;2023-07-28T02:26:06;16.00;99.90
11824;DHT22;5969;50.780;7.726;2023-07-28T02:28:32;16.00;99.90
11824;DHT22;5969;50.780;7.726;2023-07-28T02:30:59;16.00;99.90
11824;DHT22;5969;50.780;7.726;2023-07-28T02:33:27;16.00;99.90
11824;DHT22;5969;50.780;7.726;2023-07-28T02:35:55;16.00;99.90
11824;DHT22;5969;50.780;7.726;2023-07-28T02:38:21;16.10;99.90
11824;DHT22;5969;50.780;7.726;2023-07-28T02:40:50;16.00;99.90
11824;DHT22;5969;50.780;7.726;2023-07-28T02:43:16;16.00;99.90
11824;DHT22;5969;50.780;7.726;2023-07-28T02:45:47;16.10;99.90
11824;DHT22;5969;50.780;7.726;2023-07-28T02:48:13;16.00;99.90
11824;DHT22;5969;50.780;7.726;2023-07-28T02:50:45;16.00;99.90
11824;DHT22;5969;50.780;7.726;2023-07-28T02:53:12;16.00;99.90
11824;DHT22;5969;50.780;7.726;2023-07-28T02:55:41;16.00;99.90
11824;DHT22;5969;50.780;7.726;2023-07-28T02:58:09;16.10;99.90
11824;DHT22;5969;50.780;7.726;2023-07-28T03:00:37;16.20;99.90
11824;DHT22;5969;50.780;7.726;2023-07-28T03:03:04;16.10;99.90
11824;DHT22;5969;50.780;7.726;2023-07-28T03:05:31;16.10;99.90
11824;DHT22;5969;50.780;7.726;2023-07-28T03:07:59;16.00;99.90
11824;DHT22;5969;50.780;7.726;2023-07-28T03:10:26;16.00;99.90
11824;DHT22;5969;50.780;7.726;2023-07-28T03:12:54;16.00;99.90
11824;DHT22;5969;50.780;7.726;2023-07-28T03:15:22;16.00;99.90
11824;DHT22;5969;50.780;7.726;2023-07-28T03:17:49;16.10;99.90
11824;DHT22;5969;50.780;7.726;2023-07-28T03:20:16;16.00;99.90
11824;DHT22;5969;50.780;7.726;2023-07-28T03:22:43;16.00;99.90
11824;DHT22;5969;50.780;7.726;2023-07-28T03:25:12;16.10;99.90
11824;DHT22;5969;50.780;7.726;2023-07-28T03:27:39;16.00;99.90
11824;DHT22;5969;50.780;7.726;2023-07-28T03:30:06;16.00;99.90
11824;DHT22;5969;50.780;7.726;2023-07-28T03:32:37;16.00;99.90
11824;DHT22;5969;50.780;7.726;2023-07-28T03:35:04;16.10;99.90
11824;DHT22;5969;50.780;7.726;2023-07-28T03:37:31;16.10;99.90
11824;DHT22;5969;50.780;7.726;2023-07-28T03:39:58;16.00;99.90
11824;DHT22;5969;50.780;7.726;2023-07-28T03:42:26;16.00;99.90
11824;DHT22;5969;50.780;7.726;2023-07-28T03:44:53;16.00;99.90
11824;DHT22;5969;50.780;7.726;2023-07-28T03:47:19;16.10;99.90
11824;DHT22;5969;50.780;7.726;2023-07-28T03:49:48;16.10;99.90
11824;DHT22;5969;50.780;7.726;2023-07-28T03:52:14;16.10;99.90
11824;DHT22;5969;50.780;7.726;2023-07-28T03:54:41;16.10;99.90
11824;DHT22;5969;50.780;7.726;2023-07-28T03:57:09;16.10;99.90
11824;DHT22;5969;50.780;7.726;2023-07-28T03:59:36;16.10;99.90
11824;DHT22;5969;50.780;7.726;2023-07-28T04:02:03;16.10;99.90
11824;DHT22;5969;50.780;7.726;2023-07-28T04:04:30;16.10;99.90
11824;DHT22;5969;50.780;7.726;2023-07-28T04:06:58;16.10;99.90
11824;DHT22;5969;50.780;7.726;2023-07-28T04:09:25;16.10;99.90
11824;DHT22;5969;50.780;7.726;2023-07-28T04:11:52;16.10;99.90
11824;DHT22;5969;50.780;7.726;2023-07-28T04:14:19;16.20;99.90
11824;DHT22;5969;50.780;7.726;2023-07-28T04:16:46;16.10;99.90
11824;DHT22;5969;50.780;7.726;2023-07-28T04:19:12;16.20;99.90
11824;DHT22;5969;50.780;7.726;2023-07-28T04:21:39;16.20;99.90
11824;DHT22;5969;50.780;7.726;2023-07-28T04:24:08;16.10;99.90
11824;DHT22;5969;50.780;7.726;2023-07-28T04:26:35;16.20;99.90
11824;DHT22;5969;50.780;7.726;2023-07-28T04:29:02;16.20;99.90
11824;DHT22;5969;50.780;7.726;2023-07-28T04:31:29;16.20;99.90
11824;DHT22;5969;50.780;7.726;2023-07-28T04:33:56;16.20;99.90
11824;DHT22;5969;50.780;7.726;2023-07-28T04:36:23;16.20;99.90
11824;DHT22;5969;50.780;7.726;2023-07-28T04:38:49;16.20;99.90
11824;DHT22;5969;50.780;7.726;2023-07-28T04:41:17;16.30;99.90
11824;DHT22;5969;50.780;7.726;2023-07-28T04:43:44;16.40;99.90
11824;DHT22;5969;50.780;7.726;2023-07-28T04:46:11;16.40;99.90
11824;DHT22;5969;50.780;7.726;2023-07-28T04:48:38;16.30;99.90
11824;DHT22;5969;50.780;7.726;2023-07-28T04:51:05;16.40;99.90
11824;DHT22;5969;50.780;7.726;2023-07-28T04:53:32;16.50;99.90
11824;DHT22;5969;50.780;7.726;2023-07-28T04:55:58;16.50;99.90
11824;DHT22;5969;50.780;7.726;2023-07-28T04:58:27;16.40;99.90
11824;DHT22;5969;50.780;7.726;2023-07-28T05:00:54;16.40;99.90
11824;DHT22;5969;50.780;7.726;2023-07-28T05:03:21;16.40;99.90
11824;DHT22;5969;50.780;7.726;2023-07-28T05:05:49;16.40;99.90
11824;DHT22;5969;50.780;7.726;2023-07-28T05:08:17;16.50;99.90
11824;DHT22;5969;50.780;7.726;2023-07-28T05:10:44;16.40;99.90
11824;DHT22;5969;50.780;7.726;2023-07-28T05:13:11;16.50;99.90
11824;DHT22;5969;50.780;7.726;2023-07-28T05:15:39;16.50;99.90
11824;DHT22;5969;50.780;7.726;2023-07-28T05:18:06;16.60;99.90
11824;DHT22;5969;50.780;7.726;2023-07-28T05:20:34;16.50;99.90
11824;DHT22;5969;50.780;7.726;2023-07-28T05:23:00;16.50;99.90
11824;DHT22;5969;50.780;7.726;2023-07-28T05:25:27;16.50;99.90
11824;DHT22;5969;50.780;7.726;2023-07-28T05:27:54;16.70;99.90
11824;DHT22;5969;50.780;7.726;2023-07-28T05:30:21;16.60;99.90
11824;DHT22;5969;50.780;7.726;2023-07-28T05:32:49;16.70;99.90
11824;DHT22;5969;50.780;7.726;2023-07-28T05:35:16;16.60;99.90
11824;DHT22;5969;50.780;7.726;2023-07-28T05:37:43;16.60;99.90
11824;DHT22;5969;50.780;7.726;2023-07-28T05:40:11;16.60;99.90
11824;DHT22;5969;50.780;7.726;2023-07-28T05:42:38;16.70;99.90
11824;DHT22;5969;50.780;7.726;2023-07-28T05:45:06;16.70;99.90
11824;DHT22;5969;50.780;7.726;2023-07-28T05:47:34;16.70;99.90
11824;DHT22;5969;50.780;7.726;2023-07-28T05:50:03;16.80;99.90
11824;DHT22;5969;50.780;7.726;2023-07-28T05:52:31;16.90;99.90
11824;DHT22;5969;50.780;7.726;2023-07-28T05:54:57;16.80;99.90
11824;DHT22;5969;50.780;7.726;2023-07-28T05:57:24;16.90;99.90
11824;DHT22;5969;50.780;7.726;2023-07-28T05:59:51;16.80;99.90
11824;DHT22;5969;50.780;7.726;2023-07-28T06:02:18;17.00;99.90
11824;DHT22;5969;50.780;7.726;2023-07-28T06:04:45;17.00;99.90
11824;DHT22;5969;50.780;7.726;2023-07-28T06:07:13;16.90;99.90
11824;DHT22;5969;50.780;7.726;2023-07-28T06:09:40;17.00;99.90
11824;DHT22;5969;50.780;7.726;2023-07-28T06:12:07;17.00;99.90
11824;DHT22;5969;50.780;7.726;2023-07-28T06:14:34;17.00;99.90
11824;DHT22;5969;50.780;7.726;2023-07-28T06:17:01;17.10;99.90
11824;DHT22;5969;50.780;7.726;2023-07-28T06:19:28;17.00;99.90
11824;DHT22;5969;50.780;7.726;2023-07-28T06:21:55;17.10;99.90
11824;DHT22;5969;50.780;7.726;2023-07-28T06:24:23;17.00;99.90
11824;DHT22;5969;50.780;7.726;2023-07-28T06:26:52;17.10;99.90
11824;DHT22;5969;50.780;7.726;2023-07-28T06:29:19;17.10;99.90
11824;DHT22;5969;50.780;7.726;2023-07-28T06:31:46;17.10;99.90
11824;DHT22;5969;50.780;7.726;2023-07-28T06:34:12;17.20;99.90
11824;DHT22;5969;50.780;7.726;2023-07-28T06:36:39;17.20;99.90
11824;DHT22;5969;50.780;7.726;2023-07-28T06:39:06;17.40;99.90
11824;DHT22;5969;50.780;7.726;2023-07-28T06:41:34;17.40;99.90
11824;DHT22;5969;50.780;7.726;2023-07-28T06:44:01;17.50;99.90
11824;DHT22;5969;50.780;7.726;2023-07-28T06:46:28;17.50;99.90
11824;DHT22;5969;50.780;7.726;2023-07-28T06:48:56;17.60;99.90
11824;DHT22;5969;50.780;7.726;2023-07-28T06:51:23;17.60;99.90
11824;DHT22;5969;50.780;7.726;2023-07-28T06:53:49;17.70;99.90
11824;DHT22;5969;50.780;7.726;2023-07-28T06:56:17;17.60;99.90
11824;DHT22;5969;50.780;7.726;2023-07-28T06:58:45;17.70;99.90
11824;DHT22;5969;50.780;7.726;2023-07-28T07:01:12;17.80;99.90
11824;DHT22;5969;50.780;7.726;2023-07-28T07:03:39;17.90;99.90
11824;DHT22;5969;50.780;7.726;2023-07-28T07:06:06;18.00;99.90
11824;DHT22;5969;50.780;7.726;2023-07-28T07:08:33;17.90;99.90
11824;DHT22;5969;50.780;7.726;2023-07-28T07:11:01;17.90;99.90
11824;DHT22;5969;50.780;7.726;2023-07-28T07:13:28;17.70;99.90
11824;DHT22;5969;50.780;7.726;2023-07-28T07:15:56;17.70;99.90
11824;DHT22;5969;50.780;7.726;2023-07-28T07:18:23;17.80;99.90
11824;DHT22;5969;50.780;7.726;2023-07-28T07:20:49;17.80;99.90
11824;DHT22;5969;50.780;7.726;2023-07-28T07:23:16;17.80;99.90
11824;DHT22;5969;50.780;7.726;2023-07-28T07:25:43;17.80;99.90
11824;DHT22;5969;50.780;7.726;2023-07-28T07:28:10;17.80;99.90
11824;DHT22;5969;50.780;7.726;2023-07-28T07:30:37;18.10;99.90
11824;DHT22;5969;50.780;7.726;2023-07-28T07:33:05;18.20;99.90
11824;DHT22;5969;50.780;7.726;2023-07-28T07:35:35;18.20;99.90
11824;DHT22;5969;50.780;7.726;2023-07-28T07:38:03;18.20;99.90
11824;DHT22;5969;50.780;7.726;2023-07-28T07:40:30;18.50;99.90
11824;DHT22;5969;50.780;7.726;2023-07-28T07:42:57;18.20;99.90
11824;DHT22;5969;50.780;7.726;2023-07-28T07:45:24;18.10;99.90
11824;DHT22;5969;50.780;7.726;2023-07-28T07:47:51;17.90;99.90
11824;DHT22;5969;50.780;7.726;2023-07-28T07:50:19;17.90;99.90
11824;DHT22;5969;50.780;7.726;2023-07-28T07:52:47;17.80;99.90
11824;DHT22;5969;50.780;7.726;2023-07-28T07:55:14;17.80;99.90
11824;DHT22;5969;50.780;7.726;2023-07-28T07:57:41;17.90;99.90
11824;DHT22;5969;50.780;7.726;2023-07-28T08:00:10;17.90;99.90
11824;DHT22;5969;50.780;7.726;2023-07-28T08:02:37;18.00;99.90
11824;DHT22;5969;50.780;7.726;2023-07-28T08:05:05;18.10;99.90
11824;DHT22;5969;50.780;7.726;2023-07-28T08:07:33;18.20;99.90
11824;DHT22;5969;50.780;7.726;2023-07-28T08:10:00;18.10;99.90
11824;DHT22;5969;50.780;7.726;2023-07-28T08:12:28;18.00;99.90
11824;DHT22;5969;50.780;7.726;2023-07-28T08:14:55;18.10;99.90
11824;DHT22;5969;50.780;7.726;2023-07-28T08:17:22;18.30;99.90
11824;DHT22;5969;50.780;7.726;2023-07-28T08:19:48;18.40;99.90
11824;DHT22;5969;50.780;7.726;2023-07-28T08:22:15;18.40;99.90
11824;DHT22;5969;50.780;7.726;2023-07-28T08:24:44;18.60;99.90
11824;DHT22;5969;50.780;7.726;2023-07-28T08:27:11;18.70;99.90
11824;DHT22;5969;50.780;7.726;2023-07-28T08:29:37;18.60;99.90
11824;DHT22;5969;50.780;7.726;2023-07-28T08:32:05;18.70;99.90
11824;DHT22;5969;50.780;7.726;2023-07-28T08:34:32;18.60;99.90
11824;DHT22;5969;50.780;7.726;2023-07-28T08:36:59;18.60;99.90
11824;DHT22;5969;50.780;7.726;2023-07-28T08:39:26;18.80;99.90
11824;DHT22;5969;50.780;7.726;2023-07-28T08:42:00;18.90;99.90
11824;DHT22;5969;50.780;7.726;2023-07-28T08:44:27;19.00;99.90
11824;DHT22;5969;50.780;7.726;2023-07-28T08:46:55;19.00;99.90
11824;DHT22;5969;50.780;7.726;2023-07-28T08:49:22;19.40;99.90
11824;DHT22;5969;50.780;7.726;2023-07-28T08:51:49;19.50;99.90
11824;DHT22;5969;50.780;7.726;2023-07-28T08:54:16;19.60;99.90
11824;DHT22;5969;50.780;7.726;2023-07-28T08:56:44;19.90;99.90
11824;DHT22;5969;50.780;7.726;2023-07-28T08:59:12;19.90;99.90
11824;DHT22;5969;50.780;7.726;2023-07-28T09:01:43;19.90;99.90
11824;DHT22;5969;50.780;7.726;2023-07-28T09:04:12;20.00;99.90
11824;DHT22;5969;50.780;7.726;2023-07-28T09:06:39;19.80;99.90
11824;DHT22;5969;50.780;7.726;2023-07-28T09:09:06;19.70;99.90
11824;DHT22;5969;50.780;7.726;2023-07-28T09:11:33;19.70;99.90
11824;DHT22;5969;50.780;7.726;2023-07-28T09:14:12;19.70;99.90
11824;DHT22;5969;50.780;7.726;2023-07-28T09:16:40;19.70;99.90
11824;DHT22;5969;50.780;7.726;2023-07-28T09:19:08;19.80;99.90
11824;DHT22;5969;50.780;7.726;2023-07-28T09:21:35;19.90;99.90
11824;DHT22;5969;50.780;7.726;2023-07-28T09:24:04;20.00;99.90
11824;DHT22;5969;50.780;7.726;2023-07-28T09:26:37;20.00;99.90
11824;DHT22;5969;50.780;7.726;2023-07-28T09:29:12;19.90;99.90
11824;DHT22;5969;50.780;7.726;2023-07-28T09:31:40;19.90;99.90
11824;DHT22;5969;50.780;7.726;2023-07-28T09:34:07;19.80;99.90
11824;DHT22;5969;50.780;7.726;2023-07-28T09:36:35;19.80;99.90
11824;DHT22;5969;50.780;7.726;2023-07-28T09:39:05;20.20;99.90
11824;DHT22;5969;50.780;7.726;2023-07-28T09:41:35;20.30;99.90
11824;DHT22;5969;50.780;7.726;2023-07-28T09:44:03;20.30;99.90
11824;DHT22;5969;50.780;7.726;2023-07-28T09:46:33;20.30;99.90
11824;DHT22;5969;50.780;7.726;2023-07-28T09:49:04;20.20;99.90
11824;DHT22;5969;50.780;7.726;2023-07-28T09:51:31;20.10;99.90
11824;DHT22;5969;50.780;7.726;2023-07-28T09:54:04;20.10;99.90
11824;DHT22;5969;50.780;7.726;2023-07-28T09:56:32;19.80;99.90
11824;DHT22;5969;50.780;7.726;2023-07-28T09:59:01;19.90;99.90
11824;DHT22;5969;50.780;7.726;2023-07-28T10:01:32;19.90;99.90
11824;DHT22;5969;50.780;7.726;2023-07-28T10:04:00;19.80;99.90
11824;DHT22;5969;50.780;7.726;2023-07-28T10:06:30;20.00;99.90
11824;DHT22;5969;50.780;7.726;2023-07-28T10:08:59;20.00;99.90
11824;DHT22;5969;50.780;7.726;2023-07-28T10:11:27;20.00;99.90
11824;DHT22;5969;50.780;7.726;2023-07-28T10:13:54;20.00;99.90
11824;DHT22;5969;50.780;7.726;2023-07-28T10:16:31;20.10;99.90
11824;DHT22;5969;50.780;7.726;2023-07-28T10:19:04;20.00;99.90
11824;DHT22;5969;50.780;7.726;2023-07-28T10:21:31;20.00;99.90
11824;DHT22;5969;50.780;7.726;2023-07-28T10:23:59;20.10;99.90
11824;DHT22;5969;50.780;7.726;2023-07-28T10:26:33;20.30;99.90
11824;DHT22;5969;50.780;7.726;2023-07-28T10:29:11;20.40;99.90
11824;DHT22;5969;50.780;7.726;2023-07-28T10:31:49;20.40;99.90
11824;DHT22;5969;50.780;7.726;2023-07-28T10:34:16;20.70;99.90
11824;DHT22;5969;50.780;7.726;2023-07-28T10:36:44;21.00;99.90
11824;DHT22;5969;50.780;7.726;2023-07-28T10:39:15;20.90;99.90
11824;DHT22;5969;50.780;7.726;2023-07-28T10:42:01;20.70;99.90
11824;DHT22;5969;50.780;7.726;2023-07-28T10:44:29;21.10;99.90
11824;DHT22;5969;50.780;7.726;2023-07-28T10:46:57;20.80;99.90
11824;DHT22;5969;50.780;7.726;2023-07-28T10:49:24;20.90;99.90
11824;DHT22;5969;50.780;7.726;2023-07-28T10:51:51;20.90;99.90
11824;DHT22;5969;50.780;7.726;2023-07-28T10:54:18;21.40;99.90
11824;DHT22;5969;50.780;7.726;2023-07-28T10:56:46;21.80;99.90
11824;DHT22;5969;50.780;7.726;2023-07-28T10:59:14;22.00;99.90
11824;DHT22;5969;50.780;7.726;2023-07-28T11:01:41;21.80;99.90
11824;DHT22;5969;50.780;7.726;2023-07-28T11:04:10;21.70;99.90
11824;DHT22;5969;50.780;7.726;2023-07-28T11:06:38;21.90;99.90
11824;DHT22;5969;50.780;7.726;2023-07-28T11:09:06;22.10;99.90
11824;DHT22;5969;50.780;7.726;2023-07-28T11:11:34;22.50;99.90
11824;DHT22;5969;50.780;7.726;2023-07-28T11:14:01;22.60;99.90
11824;DHT22;5969;50.780;7.726;2023-07-28T11:16:29;22.60;99.90
11824;DHT22;5969;50.780;7.726;2023-07-28T11:18:56;22.30;99.90
11824;DHT22;5969;50.780;7.726;2023-07-28T11:21:25;21.90;99.90
11824;DHT22;5969;50.780;7.726;2023-07-28T11:23:51;21.60;99.90
11824;DHT22;5969;50.780;7.726;2023-07-28T11:26:19;21.80;99.90
11824;DHT22;5969;50.780;7.726;2023-07-28T11:28:49;22.20;99.90
11824;DHT22;5969;50.780;7.726;2023-07-28T11:31:16;22.20;99.90
11824;DHT22;5969;50.780;7.726;2023-07-28T11:33:43;22.10;99.90
11824;DHT22;5969;50.780;7.726;2023-07-28T11:36:10;22.10;99.90
11824;DHT22;5969;50.780;7.726;2023-07-28T11:38:38;22.10;99.90
11824;DHT22;5969;50.780;7.726;2023-07-28T11:41:05;22.10;99.90
11824;DHT22;5969;50.780;7.726;2023-07-28T11:43:32;22.30;99.90
11824;DHT22;5969;50.780;7.726;2023-07-28T11:45:59;22.10;99.90
11824;DHT22;5969;50.780;7.726;2023-07-28T11:48:30;22.10;99.90
11824;DHT22;5969;50.780;7.726;2023-07-28T11:50:57;22.30;99.90
11824;DHT22;5969;50.780;7.726;2023-07-28T11:53:25;22.80;99.90
11824;DHT22;5969;50.780;7.726;2023-07-28T11:55:54;23.20;99.90
11824;DHT22;5969;50.780;7.726;2023-07-28T11:58:21;23.30;99.90
11824;DHT22;5969;50.780;7.726;2023-07-28T12:00:51;23.20;99.90
11824;DHT22;5969;50.780;7.726;2023-07-28T12:03:18;23.20;99.90
11824;DHT22;5969;50.780;7.726;2023-07-28T12:06:03;23.30;99.90
11824;DHT22;5969;50.780;7.726;2023-07-28T12:08:34;23.40;99.90
11824;DHT22;5969;50.780;7.726;2023-07-28T12:11:03;23.40;99.90
11824;DHT22;5969;50.780;7.726;2023-07-28T12:13:30;22.90;99.90
11824;DHT22;5969;50.780;7.726;2023-07-28T12:15:57;23.00;99.90
11824;DHT22;5969;50.780;7.726;2023-07-28T12:18:29;23.30;99.90
11824;DHT22;5969;50.780;7.726;2023-07-28T12:20:56;23.10;99.90
11824;DHT22;5969;50.780;7.726;2023-07-28T12:23:25;23.10;99.90
11824;DHT22;5969;50.780;7.726;2023-07-28T12:25:52;23.20;99.90
11824;DHT22;5969;50.780;7.726;2023-07-28T12:28:22;23.30;99.90
11824;DHT22;5969;50.780;7.726;2023-07-28T12:30:55;23.40;99.90
11824;DHT22;5969;50.780;7.726;2023-07-28T12:33:24;23.80;99.90
11824;DHT22;5969;50.780;7.726;2023-07-28T12:35:51;23.90;99.90
11824;DHT22;5969;50.780;7.726;2023-07-28T12:38:18;23.70;99.90
11824;DHT22;5969;50.780;7.726;2023-07-28T12:40:45;23.60;99.90
11824;DHT22;5969;50.780;7.726;2023-07-28T12:43:11;23.30;99.90
11824;DHT22;5969;50.780;7.726;2023-07-28T12:45:40;23.00;99.90
11824;DHT22;5969;50.780;7.726;2023-07-28T12:48:06;22.80;99.90
11824;DHT22;5969;50.780;7.726;2023-07-28T12:50:33;22.60;99.90
11824;DHT22;5969;50.780;7.726;2023-07-28T12:53:00;22.40;99.90
11824;DHT22;5969;50.780;7.726;2023-07-28T12:55:28;22.20;99.90
11824;DHT22;5969;50.780;7.726;2023-07-28T12:57:56;22.10;99.90
11824;DHT22;5969;50.780;7.726;2023-07-28T13:00:23;22.10;99.90
11824;DHT22;5969;50.780;7.726;2023-07-28T13:02:52;22.40;99.90
11824;DHT22;5969;50.780;7.726;2023-07-28T13:05:18;22.70;99.90
11824;DHT22;5969;50.780;7.726;2023-07-28T13:07:45;22.40;99.90
11824;DHT22;5969;50.780;7.726;2023-07-28T13:10:12;22.50;99.90
11824;DHT22;5969;50.780;7.726;2023-07-28T13:12:39;22.40;99.90
11824;DHT22;5969;50.780;7.726;2023-07-28T13:15:07;22.40;99.90
11824;DHT22;5969;50.780;7.726;2023-07-28T13:17:33;22.70;99.90
11824;DHT22;5969;50.780;7.726;2023-07-28T13:20:02;22.80;99.90
11824;DHT22;5969;50.780;7.726;2023-07-28T13:22:29;22.60;99.90
11824;DHT22;5969;50.780;7.726;2023-07-28T13:24:56;22.40;99.90
11824;DHT22;5969;50.780;7.726;2023-07-28T13:27:23;22.00;99.90
11824;DHT22;5969;50.780;7.726;2023-07-28T13:29:50;21.70;99.90
11824;DHT22;5969;50.780;7.726;2023-07-28T13:32:23;21.60;99.90
11824;DHT22;5969;50.780;7.726;2023-07-28T13:34:50;21.40;99.90
11824;DHT22;5969;50.780;7.726;2023-07-28T13:37:19;21.10;99.90
11824;DHT22;5969;50.780;7.726;2023-07-28T13:39:46;20.80;99.90
11824;DHT22;5969;50.780;7.726;2023-07-28T13:42:14;20.80;99.90
11824;DHT22;5969;50.780;7.726;2023-07-28T13:44:41;20.80;99.90
11824;DHT22;5969;50.780;7.726;2023-07-28T13:47:08;21.00;99.90
11824;DHT22;5969;50.780;7.726;2023-07-28T13:49:35;21.20;99.90
11824;DHT22;5969;50.780;7.726;2023-07-28T13:52:03;21.30;99.90
11824;DHT22;5969;50.780;7.726;2023-07-28T13:54:31;21.50;99.90
11824;DHT22;5969;50.780;7.726;2023-07-28T13:56:58;21.50;99.90
11824;DHT22;5969;50.780;7.726;2023-07-28T13:59:25;21.40;99.90
11824;DHT22;5969;50.780;7.726;2023-07-28T14:01:52;21.30;99.90
11824;DHT22;5969;50.780;7.726;2023-07-28T14:04:18;21.50;99.90
11824;DHT22;5969;50.780;7.726;2023-07-28T14:06:46;21.60;99.90
11824;DHT22;5969;50.780;7.726;2023-07-28T14:09:19;21.90;99.90
11824;DHT22;5969;50.780;7.726;2023-07-28T14:11:48;21.90;99.90
11824;DHT22;5969;50.780;7.726;2023-07-28T14:14:15;21.80;99.90
11824;DHT22;5969;50.780;7.726;2023-07-28T14:16:41;21.60;99.90
11824;DHT22;5969;50.780;7.726;2023-07-28T14:19:09;21.50;99.90
11824;DHT22;5969;50.780;7.726;2023-07-28T14:21:35;21.30;99.90
11824;DHT22;5969;50.780;7.726;2023-07-28T14:24:03;21.20;99.90
11824;DHT22;5969;50.780;7.726;2023-07-28T14:26:30;21.20;99.90
11824;DHT22;5969;50.780;7.726;2023-07-28T14:28:58;21.30;99.90
11824;DHT22;5969;50.780;7.726;2023-07-28T14:31:25;21.20;99.90
11824;DHT22;5969;50.780;7.726;2023-07-28T14:33:52;21.30;99.90
11824;DHT22;5969;50.780;7.726;2023-07-28T14:36:19;21.40;99.90
11824;DHT22;5969;50.780;7.726;2023-07-28T14:38:52;21.50;99.90
11824;DHT22;5969;50.780;7.726;2023-07-28T14:41:19;21.50;99.90
11824;DHT22;5969;50.780;7.726;2023-07-28T14:43:45;21.30;99.90
11824;DHT22;5969;50.780;7.726;2023-07-28T14:46:14;21.30;99.90
11824;DHT22;5969;50.780;7.726;2023-07-28T14:48:41;21.10;99.90
11824;DHT22;5969;50.780;7.726;2023-07-28T14:51:07;21.20;99.90
11824;DHT22;5969;50.780;7.726;2023-07-28T14:53:36;21.20;99.90
11824;DHT22;5969;50.780;7.726;2023-07-28T14:56:04;21.40;99.90
11824;DHT22;5969;50.780;7.726;2023-07-28T14:58:32;21.50;99.90
11824;DHT22;5969;50.780;7.726;2023-07-28T15:00:58;21.60;99.90
11824;DHT22;5969;50.780;7.726;2023-07-28T15:03:28;21.50;99.90
11824;DHT22;5969;50.780;7.726;2023-07-28T15:05:56;21.50;99.90
11824;DHT22;5969;50.780;7.726;2023-07-28T15:08:24;21.40;99.90
11824;DHT22;5969;50.780;7.726;2023-07-28T15:10:51;21.50;99.90
11824;DHT22;5969;50.780;7.726;2023-07-28T15:13:17;21.40;99.90
11824;DHT22;5969;50.780;7.726;2023-07-28T15:15:44;21.40;99.90
11824;DHT22;5969;50.780;7.726;2023-07-28T15:18:11;21.20;99.90
11824;DHT22;5969;50.780;7.726;2023-07-28T15:20:41;21.00;99.90
11824;DHT22;5969;50.780;7.726;2023-07-28T15:23:08;21.00;99.90
11824;DHT22;5969;50.780;7.726;2023-07-28T15:25:34;21.00;99.90
11824;DHT22;5969;50.780;7.726;2023-07-28T15:28:03;20.80;99.90
11824;DHT22;5969;50.780;7.726;2023-07-28T15:30:29;20.70;99.90
11824;DHT22;5969;50.780;7.726;2023-07-28T15:32:56;20.70;99.90
11824;DHT22;5969;50.780;7.726;2023-07-28T15:35:23;20.90;99.90
11824;DHT22;5969;50.780;7.726;2023-07-28T15:37:51;21.00;99.90
11824;DHT22;5969;50.780;7.726;2023-07-28T15:40:18;21.10;99.90
11824;DHT22;5969;50.780;7.726;2023-07-28T15:42:45;21.30;99.90
11824;DHT22;5969;50.780;7.726;2023-07-28T15:45:13;21.20;99.90
11824;DHT22;5969;50.780;7.726;2023-07-28T15:47:40;21.50;99.90
11824;DHT22;5969;50.780;7.726;2023-07-28T15:50:08;21.20;99.90
11824;DHT22;5969;50.780;7.726;2023-07-28T15:52:35;21.50;99.90